createdAt,value
2023-12-15T00:03:45.513Z,33.22
2023-12-15T00:07:49.759Z,33.92
2023-12-15T00:11:52.706Z,35.83
2023-12-15T00:15:55.575Z,36.75
2023-12-15T00:19:58.673Z,33.92
2023-12-15T00:24:03.689Z,36.13
2023-12-15T00:28:06.790Z,34.00
2023-12-15T00:32:12.309Z,35.15
2023-12-15T00:36:15.085Z,34.42
2023-12-15T00:40:19.289Z,36.28
2023-12-15T00:44:22.117Z,34.15
2023-12-15T00:48:25.019Z,33.15
2023-12-15T00:52:27.806Z,33.67
2023-12-15T00:56:31.949Z,32.20
2023-12-15T01:00:34.801Z,34.03
2023-12-15T01:04:37.945Z,34.00
2023-12-15T01:08:40.708Z,36.08
2023-12-15T01:12:44.815Z,36.33
2023-12-15T01:16:49.196Z,36.15
2023-12-15T01:20:51.979Z,37.47
2023-12-15T01:24:54.747Z,36.78
2023-12-15T01:28:58.908Z,36.88
2023-12-15T01:33:01.774Z,34.00
2023-12-15T01:37:04.890Z,38.08
2023-12-15T01:41:07.910Z,36.05
2023-12-15T01:45:12.508Z,39.92
2023-12-15T01:49:15.734Z,38.17
2023-12-15T01:53:18.699Z,36.28
2023-12-15T01:57:21.484Z,34.42
2023-12-15T02:01:25.675Z,38.08
2023-12-15T02:05:28.571Z,38.90
2023-12-15T02:09:31.413Z,36.78
2023-12-15T02:13:34.210Z,37.47
2023-12-15T02:17:38.677Z,36.13
2023-12-15T02:21:41.706Z,37.35
2023-12-15T02:25:45.900Z,36.08
2023-12-15T02:29:48.821Z,33.15
2023-12-15T02:33:51.947Z,37.90
2023-12-15T02:37:54.862Z,38.65
2023-12-15T02:41:59.850Z,43.58
2023-12-15T02:46:02.698Z,33.55
2023-12-15T02:50:06.164Z,35.22
2023-12-15T02:54:08.978Z,32.88
2023-12-15T02:58:13.084Z,33.05
2023-12-15T03:02:16.005Z,34.63
2023-12-15T03:06:18.990Z,33.65
2023-12-15T03:10:21.914Z,31.90
2023-12-15T03:14:26.054Z,32.08
2023-12-15T03:18:28.917Z,33.45
2023-12-15T03:22:31.730Z,33.35
2023-12-15T03:26:34.581Z,28.25
2023-12-15T03:30:38.768Z,30.00
2023-12-15T03:34:41.613Z,30.17
2023-12-15T03:38:46.886Z,27.95
2023-12-15T03:42:49.712Z,31.42
2023-12-15T03:46:53.871Z,26.13
2023-12-15T03:50:56.657Z,29.85
2023-12-15T03:54:59.443Z,22.75
2023-12-15T03:59:02.642Z,23.67
2023-12-15T04:03:06.841Z,24.90
2023-12-15T04:07:09.696Z,22.92
2023-12-15T04:11:12.532Z,19.92
2023-12-15T04:15:19.377Z,24.13
2023-12-15T04:19:24.256Z,23.17
2023-12-15T04:23:27.138Z,22.20
2023-12-15T04:27:31.687Z,21.83
2023-12-15T04:31:34.506Z,25.05
2023-12-15T04:35:38.705Z,30.67
2023-12-15T04:39:41.578Z,20.65
2023-12-15T04:43:44.391Z,24.63
2023-12-15T04:47:47.375Z,23.67
2023-12-15T04:51:51.530Z,29.13
2023-12-15T04:55:54.339Z,25.30
2023-12-15T04:59:57.104Z,27.40
2023-12-15T05:03:59.883Z,24.35
2023-12-15T05:08:04.262Z,28.58
2023-12-15T05:12:09.516Z,23.23
2023-12-15T05:16:12.326Z,21.92
2023-12-15T05:20:15.262Z,23.15
2023-12-15T05:24:19.474Z,26.55
2023-12-15T05:28:23.223Z,25.75
2023-12-15T05:32:26.100Z,26.23
2023-12-15T05:36:29.011Z,26.17
2023-12-15T05:40:33.121Z,29.38
2023-12-15T05:44:36.122Z,28.50
2023-12-15T05:48:41.241Z,31.33
2023-12-15T05:52:44.193Z,28.70
2023-12-15T05:56:49.047Z,33.30
2023-12-15T06:00:51.882Z,29.52
2023-12-15T06:05:04.590Z,32.67
2023-12-15T06:09:07.418Z,32.35
2023-12-15T06:13:14.014Z,30.35
2023-12-15T06:17:16.864Z,31.08
2023-12-15T06:21:23.705Z,29.80
2023-12-15T06:25:26.602Z,30.52
2023-12-15T06:29:30.799Z,28.95
2023-12-15T06:33:33.686Z,31.33
2023-12-15T06:37:36.683Z,34.60
2023-12-15T06:41:40.083Z,35.58
2023-12-15T06:45:44.649Z,33.17
2023-12-15T06:49:47.886Z,37.95
2023-12-15T06:53:51.050Z,37.53
2023-12-15T06:57:55.084Z,38.83
2023-12-15T07:01:59.907Z,37.60
2023-12-15T07:06:03.636Z,34.60
2023-12-15T07:10:07.485Z,33.95
2023-12-15T07:14:10.648Z,36.38
2023-12-15T07:18:15.250Z,39.08
2023-12-15T07:22:20.872Z,38.65
2023-12-15T07:26:24.359Z,35.47
2023-12-15T07:30:28.034Z,42.15
2023-12-15T07:34:32.591Z,38.92
2023-12-15T07:38:35.811Z,40.88
2023-12-15T07:42:39.286Z,40.55
2023-12-15T07:46:42.586Z,40.35
2023-12-15T07:50:48.087Z,45.25
2023-12-15T07:54:51.372Z,42.40
2023-12-15T07:58:55.008Z,48.42
2023-12-15T08:02:58.236Z,48.78
2023-12-15T08:07:02.807Z,50.15
2023-12-15T08:11:06.528Z,56.03
2023-12-15T08:15:10.185Z,54.47
2023-12-15T08:19:13.391Z,55.60
2023-12-15T08:23:17.982Z,58.33
2023-12-15T08:27:22.536Z,58.13
2023-12-15T08:31:26.359Z,50.13
2023-12-15T08:35:29.620Z,56.95
2023-12-15T08:39:34.108Z,54.03
2023-12-15T08:43:37.590Z,58.20
2023-12-15T08:47:41.049Z,54.17
2023-12-15T08:51:44.453Z,56.60
2023-12-15T08:55:49.028Z,59.67
2023-12-15T08:59:52.274Z,60.38
2023-12-15T09:03:55.492Z,56.90
2023-12-15T09:07:59.052Z,61.45
2023-12-15T09:12:03.608Z,58.30
2023-12-15T09:16:06.919Z,64.65
2023-12-15T09:20:11.181Z,72.55
2023-12-15T09:24:15.835Z,64.40
2023-12-15T09:28:20.366Z,69.15
2023-12-15T09:32:23.550Z,62.80
2023-12-15T09:36:27.765Z,71.60
2023-12-15T09:40:31.914Z,67.20
2023-12-15T09:44:46.017Z,64.28
2023-12-15T09:48:56.279Z,65.95
2023-12-15T09:53:00.898Z,63.75
2023-12-15T09:57:04.174Z,68.57
2023-12-15T10:01:09.161Z,71.57
2023-12-15T10:05:12.789Z,70.78
2023-12-15T10:09:18.007Z,67.63
2023-12-15T10:13:21.341Z,73.30
2023-12-15T10:17:26.001Z,67.75
2023-12-15T10:21:29.321Z,69.68
2023-12-15T10:25:33.942Z,80.15
2023-12-15T10:29:40.240Z,70.05
2023-12-15T10:33:46.412Z,66.25
2023-12-15T10:37:49.812Z,61.40
2023-12-15T10:41:53.113Z,68.45
2023-12-15T10:45:56.533Z,69.45
2023-12-15T10:50:01.467Z,64.05
2023-12-15T10:54:06.544Z,68.90
2023-12-15T10:58:09.773Z,70.53
2023-12-15T11:02:14.626Z,65.28
2023-12-15T11:06:29.076Z,59.30
2023-12-15T11:10:32.803Z,60.42
2023-12-15T11:14:37.260Z,60.92
2023-12-15T11:18:42.340Z,61.78
2023-12-15T11:22:54.019Z,60.10
2023-12-15T11:26:57.223Z,56.60
2023-12-15T11:31:00.506Z,60.08
2023-12-15T11:35:05.963Z,54.95
2023-12-15T11:39:13.695Z,63.78
2023-12-15T11:43:17.313Z,59.42
2023-12-15T11:47:21.057Z,60.35
2023-12-15T11:51:26.274Z,62.72
2023-12-15T11:55:30.836Z,60.90
2023-12-15T11:59:37.189Z,52.53
2023-12-15T12:03:40.492Z,52.33
2023-12-15T12:07:43.676Z,53.20
2023-12-15T12:11:49.588Z,51.83
2023-12-15T12:15:53.927Z,57.63
2023-12-15T12:19:59.974Z,56.70
2023-12-15T12:24:03.780Z,54.35
2023-12-15T12:28:08.420Z,53.72
2023-12-15T12:32:11.591Z,61.63
2023-12-15T12:36:16.247Z,62.30
2023-12-15T12:40:20.220Z,64.65
2023-12-15T12:44:24.822Z,61.75
2023-12-15T12:48:29.723Z,60.92
2023-12-15T12:52:33.676Z,59.00
2023-12-15T12:56:41.720Z,59.53
2023-12-15T13:00:53.074Z,55.97
2023-12-15T13:04:59.258Z,59.17
2023-12-15T13:09:03.765Z,57.80
2023-12-15T13:13:09.924Z,56.17
2023-12-15T13:17:15.322Z,57.47
2023-12-15T13:21:18.670Z,52.42
2023-12-15T13:25:21.858Z,54.30
2023-12-15T13:29:33.565Z,54.08
2023-12-15T13:33:47.344Z,58.30
2023-12-15T13:37:50.731Z,59.45
2023-12-15T13:41:54.284Z,52.17
2023-12-15T13:46:05.137Z,52.55
2023-12-15T13:50:13.141Z,54.47
2023-12-15T13:54:16.455Z,55.33
2023-12-15T13:58:19.609Z,51.78
2023-12-15T14:02:23.599Z,52.33
2023-12-15T14:06:28.223Z,55.38
2023-12-15T14:10:31.493Z,53.22
2023-12-15T14:14:34.751Z,54.90
2023-12-15T14:18:39.404Z,52.45
2023-12-15T14:22:43.833Z,56.33
2023-12-15T14:26:48.835Z,56.53
2023-12-15T14:30:52.413Z,52.50
2023-12-15T14:34:55.331Z,54.47
2023-12-15T14:38:59.529Z,59.13
2023-12-15T14:43:02.387Z,56.33
2023-12-15T14:47:07.729Z,52.78
2023-12-15T14:51:10.819Z,53.13
2023-12-15T14:55:15.197Z,56.90
2023-12-15T14:59:18.044Z,55.90
2023-12-15T15:03:22.246Z,56.38
2023-12-15T15:07:25.279Z,56.95
2023-12-15T15:11:30.187Z,51.55
2023-12-15T15:15:34.206Z,51.53
2023-12-15T15:19:37.027Z,55.70
2023-12-15T15:23:39.927Z,56.47
2023-12-15T15:27:44.195Z,57.05
2023-12-15T15:31:47.362Z,61.38
2023-12-15T15:35:50.674Z,50.50
2023-12-15T15:39:53.671Z,58.15
2023-12-15T15:44:06.063Z,56.78
2023-12-15T15:48:14.007Z,55.00
2023-12-15T15:52:16.862Z,54.67
2023-12-15T15:56:20.640Z,55.90
2023-12-15T16:00:24.966Z,54.97
2023-12-15T16:04:27.868Z,57.55
2023-12-15T16:08:34.812Z,52.97
2023-12-15T16:12:37.745Z,54.30
2023-12-15T16:16:41.913Z,56.95
2023-12-15T16:20:44.882Z,52.58
2023-12-15T16:24:47.880Z,54.92
2023-12-15T16:28:50.794Z,53.70
2023-12-15T16:32:56.298Z,58.78
2023-12-15T16:37:02.463Z,52.92
2023-12-15T16:41:05.892Z,56.05
2023-12-15T16:45:09.506Z,62.55
2023-12-15T16:49:13.817Z,54.70
2023-12-15T16:53:16.687Z,55.55
2023-12-15T16:57:19.511Z,54.72
2023-12-15T17:01:22.700Z,58.38
2023-12-15T17:05:26.949Z,53.80
2023-12-15T17:09:31.760Z,58.63
2023-12-15T17:13:34.705Z,54.22
2023-12-15T17:17:39.468Z,51.28
2023-12-15T17:21:45.246Z,54.65
2023-12-15T17:25:48.019Z,53.70
2023-12-15T17:29:51.063Z,49.50
2023-12-15T17:33:54.209Z,55.20
2023-12-15T17:37:58.441Z,46.53
2023-12-15T17:42:01.300Z,55.17
2023-12-15T17:46:04.366Z,55.63
2023-12-15T17:50:08.413Z,52.20
2023-12-15T17:54:13.439Z,47.83
2023-12-15T17:58:16.375Z,49.10
2023-12-15T18:02:19.916Z,45.10
2023-12-15T18:06:25.302Z,43.80
2023-12-15T18:10:29.602Z,45.83
2023-12-15T18:14:33.547Z,45.78
2023-12-15T18:18:38.481Z,46.17
2023-12-15T18:22:41.747Z,44.47
2023-12-15T18:26:47.724Z,43.25
2023-12-15T18:30:51.314Z,40.88
2023-12-15T18:34:54.388Z,46.03
2023-12-15T18:38:59.992Z,42.13
2023-12-15T18:43:05.108Z,37.00
2023-12-15T18:47:07.924Z,42.70
2023-12-15T18:51:18.058Z,40.75
2023-12-15T18:55:21.000Z,37.42
2023-12-15T18:59:25.192Z,38.88
2023-12-15T19:03:28.021Z,37.70
2023-12-15T19:07:31.919Z,36.17
2023-12-15T19:11:34.850Z,34.65
2023-12-15T19:15:39.195Z,36.42
2023-12-15T19:19:44.514Z,37.85
2023-12-15T19:23:49.528Z,31.55
2023-12-15T19:27:52.368Z,32.75
2023-12-15T19:31:56.530Z,33.83
2023-12-15T19:35:59.548Z,32.75
2023-12-15T19:40:04.824Z,30.55
2023-12-15T19:44:08.116Z,32.00
2023-12-15T19:48:12.462Z,33.42
2023-12-15T19:52:15.404Z,30.33
2023-12-15T19:56:22.749Z,28.52
2023-12-15T20:00:25.980Z,31.42
2023-12-15T20:04:30.775Z,29.98
2023-12-15T20:08:33.628Z,30.10
2023-12-15T20:12:36.484Z,29.77
2023-12-15T20:16:39.304Z,28.65
2023-12-15T20:20:46.661Z,27.70
2023-12-15T20:24:49.784Z,30.50
2023-12-15T20:28:59.655Z,30.65
2023-12-15T20:33:07.631Z,26.60
2023-12-15T20:37:12.028Z,25.63
2023-12-15T20:41:18.687Z,23.17
2023-12-15T20:45:24.479Z,26.63
2023-12-15T20:49:28.829Z,28.80
2023-12-15T20:53:38.780Z,23.90
2023-12-15T20:57:41.791Z,21.55
2023-12-15T21:01:44.630Z,20.88
2023-12-15T21:05:47.770Z,22.70
2023-12-15T21:09:54.847Z,23.75
2023-12-15T21:13:58.140Z,27.73
2023-12-15T21:18:04.278Z,22.98
2023-12-15T21:22:07.314Z,22.40
2023-12-15T21:26:14.108Z,20.13
2023-12-15T21:30:21.366Z,20.73
2023-12-15T21:34:29.634Z,25.40
2023-12-15T21:38:33.143Z,21.92
2023-12-15T21:42:38.286Z,19.52
2023-12-15T21:46:41.739Z,26.38
2023-12-15T21:50:46.514Z,19.98
2023-12-15T21:54:49.295Z,23.95
2023-12-15T21:58:54.862Z,25.00
2023-12-15T22:02:58.862Z,19.77
2023-12-15T22:07:03.359Z,20.30
2023-12-15T22:11:06.544Z,21.00
2023-12-15T22:15:11.342Z,17.55
2023-12-15T22:19:14.477Z,15.23
2023-12-15T22:23:17.345Z,15.77
2023-12-15T22:27:20.146Z,14.05
2023-12-15T22:31:24.481Z,17.98
2023-12-15T22:35:27.312Z,17.77
2023-12-15T22:39:30.085Z,16.98
2023-12-15T22:43:33.093Z,17.15
2023-12-15T22:47:38.414Z,16.15
2023-12-15T22:51:42.404Z,14.38
2023-12-15T22:55:45.384Z,16.48
2023-12-15T22:59:48.198Z,18.25
2023-12-15T23:04:52.141Z,16.13
2023-12-15T23:09:00.741Z,17.02
2023-12-15T23:13:03.670Z,16.48
2023-12-15T23:17:06.543Z,18.70
2023-12-15T23:21:19.463Z,16.67
2023-12-15T23:25:29.029Z,17.88
2023-12-15T23:29:43.138Z,14.80
2023-12-15T23:33:47.318Z,13.70
2023-12-15T23:37:52.696Z,17.20
2023-12-15T23:42:00.570Z,17.17
2023-12-15T23:46:11.190Z,14.63
2023-12-15T23:50:14.711Z,13.30
2023-12-15T23:54:18.814Z,16.40
2023-12-15T23:58:21.706Z,11.68
